Time;durP1;ratioP1;P1;durP2;ratioP2;P2;SDS_P1;SDS_P2;PMS_P1;PMS_P2;Temp;Humidity;BMP_temperature;BMP_pressure;BME280_temperature;BME280_humidity;BME280_pressure;Samples;Min_cycle;Max_cycle;Signal;HPM_P1;HPM_P2
2022/10/23 00:00:51;;;;;;;69.90;38.90;;;;;;;11.20;100.00;95164.63;5037177;28;20257;-77
2022/10/23 00:03:17;;;;;;;60.40;34.27;;;;;;;11.21;100.00;95167.03;5044744;28;20198;-77
2022/10/23 00:05:44;;;;;;;53.77;31.33;;;;;;;11.16;100.00;95164.28;5046568;28;20202;-78
2022/10/23 00:08:12;;;;;;;61.23;35.70;;;;;;;11.13;100.00;95167.28;5038958;28;20226;-78
2022/10/23 00:10:42;;;;;;;55.90;34.60;;;;;;;11.14;100.00;95166.25;5045240;28;20205;-78
2022/10/23 00:13:09;;;;;;;58.43;32.67;;;;;;;11.02;100.00;95157.53;5041517;28;20198;-79
2022/10/23 00:15:37;;;;;;;65.37;35.07;;;;;;;11.05;100.00;95158.94;5045408;28;20393;-78
2022/10/23 00:18:04;;;;;;;64.33;35.50;;;;;;;11.05;100.00;95161.53;5053227;28;20221;-77
2022/10/23 00:20:31;;;;;;;59.70;35.87;;;;;;;11.07;100.00;95147.31;5047236;28;20622;-77
2022/10/23 00:22:58;;;;;;;59.67;35.80;;;;;;;11.10;100.00;95138.28;5043128;28;20198;-77
2022/10/23 00:25:26;;;;;;;55.70;33.50;;;;;;;10.98;100.00;95145.16;5043391;28;20202;-77
2022/10/23 00:27:53;;;;;;;56.00;34.67;;;;;;;10.94;100.00;95146.59;5046253;28;20191;-78
2022/10/23 00:30:20;;;;;;;57.03;34.47;;;;;;;10.93;100.00;95143.19;5042592;28;20294;-78
2022/10/23 00:32:47;;;;;;;89.97;44.70;;;;;;;10.99;100.00;95159.75;5044024;28;20202;-78
2022/10/23 00:35:13;;;;;;;119.17;63.13;;;;;;;11.02;100.00;95159.34;5044161;28;20191;-78
2022/10/23 00:37:40;;;;;;;98.53;50.30;;;;;;;11.09;100.00;95160.91;5042506;28;20225;-78
2022/10/23 00:40:09;;;;;;;95.83;54.90;;;;;;;11.10;100.00;95146.88;5046794;28;20274;-77
2022/10/23 00:42:37;;;;;;;110.53;56.80;;;;;;;11.18;100.00;95156.25;5042722;28;20229;-76
2022/10/23 00:45:19;;;;;;;125.20;63.47;;;;;;;11.16;100.00;95150.47;5046710;28;20210;-78
2022/10/23 00:47:45;;;;;;;115.63;60.47;;;;;;;11.17;100.00;95152.03;5043653;28;20201;-78
2022/10/23 00:50:13;;;;;;;93.37;51.07;;;;;;;11.09;100.00;95153.09;5037568;28;20676;-79
2022/10/23 00:52:45;;;;;;;112.30;58.47;;;;;;;11.03;100.00;95132.31;5039390;28;20612;-78
2022/10/23 00:55:12;;;;;;;107.40;58.63;;;;;;;11.13;100.00;95146.47;5044055;28;20183;-78
2022/10/23 00:57:45;;;;;;;94.73;51.10;;;;;;;11.14;100.00;95145.44;5042325;28;20740;-78
2022/10/23 01:00:16;;;;;;;62.27;34.33;;;;;;;10.98;100.00;95124.34;5038886;28;20252;-78
2022/10/23 01:02:43;;;;;;;42.43;24.83;;;;;;;10.92;100.00;95138.19;5048531;28;20202;-78
2022/10/23 01:05:11;;;;;;;42.20;22.83;;;;;;;10.90;100.00;95132.41;5041378;28;20198;-78
2022/10/23 01:07:46;;;;;;;35.23;23.30;;;;;;;10.89;100.00;95128.19;5044624;28;20186;-79
2022/10/23 01:10:23;;;;;;;39.57;23.17;;;;;;;10.88;100.00;95137.00;5042132;28;20257;-78
2022/10/23 01:12:58;;;;;;;56.20;33.20;;;;;;;10.72;100.00;95151.25;5044183;28;20205;-78
2022/10/23 01:15:31;;;;;;;63.30;34.80;;;;;;;10.69;100.00;95149.06;5047782;28;20633;-77
2022/10/23 01:18:06;;;;;;;60.07;33.27;;;;;;;10.68;100.00;95170.88;5044617;28;20222;-78
2022/10/23 01:20:42;;;;;;;62.47;32.73;;;;;;;10.69;100.00;95181.06;5048081;28;20199;-78
2022/10/23 01:23:33;;;;;;;63.30;32.37;;;;;;;10.64;100.00;95172.28;5041724;28;20571;-78
2022/10/23 01:26:15;;;;;;;50.93;31.77;;;;;;;10.64;100.00;95182.69;5042360;28;20191;-79
2022/10/23 01:28:50;;;;;;;65.50;33.03;;;;;;;10.69;100.00;95195.88;5041517;28;20191;-78
2022/10/23 01:31:22;;;;;;;60.20;32.67;;;;;;;10.75;100.00;95205.44;5044468;28;20198;-78
2022/10/23 01:33:56;;;;;;;60.03;34.40;;;;;;;10.67;100.00;95210.88;5043851;28;20668;-78
2022/10/23 01:36:28;;;;;;;60.33;35.33;;;;;;;10.79;100.00;95202.22;5044115;28;20197;-78
2022/10/23 01:38:59;;;;;;;60.53;34.90;;;;;;;10.85;100.00;95215.44;5041502;28;20245;-77
2022/10/23 01:41:29;;;;;;;51.53;32.83;;;;;;;10.78;100.00;95216.25;5045872;28;20195;-78
2022/10/23 01:44:04;;;;;;;64.80;34.30;;;;;;;10.69;100.00;95230.47;5037054;28;20237;-78
2022/10/23 01:46:36;;;;;;;54.20;32.13;;;;;;;10.63;100.00;95225.28;5053435;28;20277;-77
2022/10/23 01:49:05;;;;;;;53.03;31.33;;;;;;;10.50;100.00;95227.91;5046898;28;20657;-78
2022/10/23 01:51:35;;;;;;;59.07;30.90;;;;;;;10.50;100.00;95212.31;5053084;28;20205;-78
2022/10/23 01:54:05;;;;;;;51.83;31.57;;;;;;;10.39;100.00;95205.94;5052469;28;20190;-78
2022/10/23 01:56:35;;;;;;;51.97;30.97;;;;;;;10.46;100.00;95201.53;5052022;28;20293;-78
2022/10/23 01:59:08;;;;;;;59.80;31.50;;;;;;;10.56;100.00;95199.28;5051801;28;20218;-78
2022/10/23 02:01:40;;;;;;;55.80;31.27;;;;;;;10.67;100.00;95210.88;5052870;28;20190;-78
2022/10/23 02:04:10;;;;;;;52.07;28.97;;;;;;;10.71;100.00;95219.84;5052000;28;20657;-77
2022/10/23 02:06:37;;;;;;;49.57;29.67;;;;;;;10.81;100.00;95218.44;5052234;28;20194;-77
2022/10/23 02:09:04;;;;;;;46.40;28.53;;;;;;;10.87;100.00;95226.41;5052162;28;20192;-77
2022/10/23 02:11:36;;;;;;;47.77;28.73;;;;;;;10.94;100.00;95227.97;5051922;28;20727;-77
2022/10/23 02:14:11;;;;;;;46.20;28.80;;;;;;;11.00;100.00;95215.94;5051748;28;20198;-77
2022/10/23 02:16:43;;;;;;;51.57;28.83;;;;;;;11.12;100.00;95229.91;5052239;28;20194;-77
2022/10/23 02:19:17;;;;;;;50.73;29.57;;;;;;;11.14;100.00;95233.91;5052024;28;20202;-76
2022/10/23 02:21:52;;;;;;;54.00;29.50;;;;;;;11.05;100.00;95242.97;5049808;28;20193;-77
2022/10/23 02:24:22;;;;;;;50.33;29.23;;;;;;;11.10;100.00;95239.72;5051769;28;20568;-77
2022/10/23 02:26:53;;;;;;;47.87;28.77;;;;;;;11.15;100.00;95234.69;5051137;28;20205;-77
2022/10/23 02:29:27;;;;;;;46.97;28.83;;;;;;;11.15;100.00;95232.91;5051291;28;20189;-78
2022/10/23 02:31:54;;;;;;;49.30;28.80;;;;;;;11.20;100.00;95240.06;5051991;28;20197;-78
2022/10/23 02:34:21;;;;;;;49.67;28.73;;;;;;;11.05;100.00;95237.75;5051830;28;20197;-78
2022/10/23 02:36:48;;;;;;;49.97;29.50;;;;;;;11.06;100.00;95257.53;5051689;28;20193;-76
2022/10/23 02:39:15;;;;;;;52.57;29.37;;;;;;;11.02;100.00;95260.78;5051863;28;20688;-77
2022/10/23 02:41:47;;;;;;;44.70;28.37;;;;;;;10.98;100.00;95247.38;5051570;28;20186;-78
2022/10/23 02:44:25;;;;;;;48.13;28.43;;;;;;;11.08;100.00;95249.56;5024868;28;20289;-77
2022/10/23 02:47:00;;;;;;;54.10;29.20;;;;;;;11.13;100.00;95245.31;5020602;28;20242;-77
2022/10/23 02:49:35;;;;;;;46.07;27.20;;;;;;;11.22;100.00;95243.28;5020457;28;20622;-78
2022/10/23 02:52:12;;;;;;;46.57;26.20;;;;;;;11.26;100.00;95241.84;5023206;28;20608;-78
2022/10/23 02:54:56;;;;;;;45.50;25.30;;;;;;;11.29;100.00;95239.63;5020319;28;20270;-77
2022/10/23 02:57:30;;;;;;;43.23;25.10;;;;;;;11.34;100.00;95249.44;5018498;28;20762;-77
2022/10/23 03:00:04;;;;;;;40.10;23.87;;;;;;;11.32;100.00;95239.22;5018022;28;20202;-79
2022/10/23 03:02:37;;;;;;;39.03;23.87;;;;;;;11.33;100.00;95248.63;5022182;28;20184;-79
2022/10/23 03:05:07;;;;;;;40.23;23.27;;;;;;;11.21;100.00;95245.09;5021220;28;20657;-77
2022/10/23 03:07:36;;;;;;;46.10;23.73;;;;;;;11.10;100.00;95240.53;5018776;28;20187;-77
2022/10/23 03:10:02;;;;;;;43.67;23.30;;;;;;;11.17;100.00;95243.88;5025090;28;20241;-77
2022/10/23 03:12:29;;;;;;;37.73;21.23;;;;;;;11.21;100.00;95252.91;5021094;28;20214;-79
2022/10/23 03:14:56;;;;;;;43.97;22.57;;;;;;;11.25;100.00;95254.09;5023014;28;20204;-77
2022/10/23 03:17:27;;;;;;;39.27;22.40;;;;;;;11.34;100.00;95246.84;5026263;28;20195;-78
2022/10/23 03:19:54;;;;;;;41.37;24.40;;;;;;;11.31;100.00;95237.63;5023191;28;20211;-78
2022/10/23 03:22:21;;;;;;;41.60;24.40;;;;;;;11.37;100.00;95247.19;5019633;28;20199;-78
2022/10/23 03:24:47;;;;;;;49.00;25.17;;;;;;;11.42;100.00;95253.59;5021803;28;20558;-78
2022/10/23 03:27:15;;;;;;;40.73;23.73;;;;;;;11.38;100.00;95256.63;5023291;28;20191;-78
2022/10/23 03:29:42;;;;;;;40.13;23.80;;;;;;;11.44;100.00;95254.19;5023523;28;20200;-79
2022/10/23 03:32:09;;;;;;;39.23;23.17;;;;;;;11.44;100.00;95262.00;5025111;28;20196;-78
2022/10/23 03:34:37;;;;;;;46.57;24.70;;;;;;;11.46;100.00;95265.97;5019972;28;20256;-78
2022/10/23 03:37:04;;;;;;;41.70;24.17;;;;;;;11.46;100.00;95268.59;5020667;28;20855;-78
2022/10/23 03:39:30;;;;;;;43.67;23.93;;;;;;;11.52;100.00;95272.97;5030504;28;20218;-79
2022/10/23 03:42:00;;;;;;;36.67;23.47;;;;;;;11.55;100.00;95275.16;5033308;28;20206;-78
2022/10/23 03:44:26;;;;;;;40.47;24.00;;;;;;;11.58;100.00;95268.72;5041011;28;20228;-78
2022/10/23 03:46:53;;;;;;;39.20;23.13;;;;;;;11.58;100.00;95273.94;5044029;28;20233;-77
2022/10/23 03:49:20;;;;;;;39.03;24.40;;;;;;;11.58;100.00;95269.53;5041333;28;20198;-78
2022/10/23 03:51:51;;;;;;;40.73;23.57;;;;;;;11.56;100.00;95273.34;5044546;28;20188;-77
2022/10/23 03:54:22;;;;;;;38.67;24.00;;;;;;;11.45;100.00;95263.59;5050018;28;20207;-77
2022/10/23 03:56:49;;;;;;;41.50;24.47;;;;;;;11.54;100.00;95280.56;5045395;28;20720;-78
2022/10/23 03:59:17;;;;;;;38.27;22.13;;;;;;;11.51;100.00;95294.00;5046301;28;20229;-77
2022/10/23 04:01:44;;;;;;;43.43;22.07;;;;;;;11.45;100.00;95298.25;5046643;28;20267;-77
2022/10/23 04:04:11;;;;;;;42.23;22.33;;;;;;;11.38;100.00;95300.84;5044340;28;20197;-79
2022/10/23 04:06:39;;;;;;;39.93;22.20;;;;;;;11.37;100.00;95293.25;5045466;28;20665;-78
2022/10/23 04:09:07;;;;;;;42.03;23.73;;;;;;;11.33;100.00;95303.28;5046849;28;20655;-77
2022/10/23 04:11:34;;;;;;;36.43;23.33;;;;;;;11.35;99.20;95298.66;5046435;28;20191;-78
2022/10/23 04:14:03;;;;;;;36.60;19.37;;;;;;;11.47;94.79;95308.44;5045953;28;20190;-78
2022/10/23 04:16:30;;;;;;;32.70;16.73;;;;;;;11.55;92.81;95288.16;5048725;28;20675;-79
2022/10/23 04:18:56;;;;;;;26.80;15.13;;;;;;;11.77;90.41;95294.72;5052012;28;20276;-78
2022/10/23 04:21:23;;;;;;;26.63;12.47;;;;;;;11.89;88.43;95289.59;5040917;28;20210;-78
2022/10/23 04:23:50;;;;;;;23.13;10.70;;;;;;;12.06;86.69;95289.91;5043679;28;20202;-77
2022/10/23 04:26:18;;;;;;;24.27;11.53;;;;;;;12.18;85.68;95283.78;5043548;28;20680;-77
2022/10/23 04:28:45;;;;;;;20.63;11.07;;;;;;;12.39;84.17;95293.84;5043854;28;20187;-78
2022/10/23 04:31:12;;;;;;;23.17;10.57;;;;;;;12.51;82.36;95292.16;5049576;28;20252;-78
2022/10/23 04:33:39;;;;;;;19.40;9.13;;;;;;;12.71;80.69;95286.75;5045634;28;20187;-77
2022/10/23 04:36:07;;;;;;;24.00;9.47;;;;;;;12.88;79.48;95300.84;5051654;28;20256;-77
2022/10/23 04:38:34;;;;;;;16.93;8.10;;;;;;;13.12;77.51;95296.63;5049064;28;20689;-79
2022/10/23 04:41:00;;;;;;;14.70;8.00;;;;;;;13.21;76.44;95295.31;5044523;28;20198;-78
2022/10/23 04:43:29;;;;;;;16.13;7.77;;;;;;;13.35;76.02;95309.81;5043773;28;20241;-79
2022/10/23 04:45:55;;;;;;;15.60;8.17;;;;;;;13.37;75.84;95299.13;5045103;28;20641;-78
2022/10/23 04:48:22;;;;;;;17.07;7.93;;;;;;;13.39;75.19;95294.50;5044644;28;20197;-77
2022/10/23 04:50:56;;;;;;;16.50;8.00;;;;;;;13.34;75.23;95294.34;5042774;28;20201;-77
2022/10/23 04:53:23;;;;;;;15.93;7.30;;;;;;;13.32;75.79;95299.00;5048172;28;20222;-78
2022/10/23 04:55:51;;;;;;;21.17;8.73;;;;;;;13.28;75.81;95297.84;5042174;28;20201;-78
2022/10/23 04:58:19;;;;;;;18.67;8.70;;;;;;;13.22;74.64;95289.06;5039682;28;20249;-78
2022/10/23 05:00:47;;;;;;;14.07;7.97;;;;;;;13.38;73.91;95313.78;5043319;28;20191;-78
2022/10/23 05:03:15;;;;;;;17.77;9.20;;;;;;;13.42;73.07;95313.13;5045247;28;20190;-77
2022/10/23 05:05:42;;;;;;;19.93;9.17;;;;;;;13.41;72.87;95315.97;5042174;28;20195;-78
2022/10/23 05:08:10;;;;;;;13.47;7.87;;;;;;;13.53;71.77;95309.78;5037548;28;20202;-78
2022/10/23 05:10:37;;;;;;;12.87;7.40;;;;;;;13.56;71.96;95308.56;5048513;28;20191;-79
2022/10/23 05:13:04;;;;;;;12.40;7.27;;;;;;;13.72;71.34;95317.59;5050904;28;20198;-78
2022/10/23 05:15:31;;;;;;;18.47;8.23;;;;;;;13.68;71.60;95325.06;5047162;28;20198;-78
2022/10/23 05:18:04;;;;;;;20.30;9.40;;;;;;;13.72;71.88;95328.03;5044307;28;20205;-78
2022/10/23 05:20:35;;;;;;;20.57;9.10;;;;;;;13.72;73.16;95326.22;5045168;28;20198;-79
2022/10/23 05:23:03;;;;;;;26.47;10.67;;;;;;;13.72;73.43;95317.59;5042262;28;20190;-79
2022/10/23 05:25:30;;;;;;;21.87;9.27;;;;;;;13.82;73.43;95331.75;5050859;28;20248;-79
2022/10/23 05:27:57;;;;;;;21.23;10.23;;;;;;;13.84;72.77;95331.50;5045178;28;20198;-79
2022/10/23 05:30:24;;;;;;;18.33;10.67;;;;;;;13.87;72.69;95333.69;5038652;28;20191;-79
2022/10/23 05:32:50;;;;;;;18.83;10.37;;;;;;;13.95;72.28;95333.38;5050401;28;20202;-78
2022/10/23 05:35:22;;;;;;;21.37;10.40;;;;;;;14.05;72.23;95349.34;5041604;28;20203;-79
2022/10/23 05:37:52;;;;;;;20.73;10.13;;;;;;;14.13;72.68;95362.09;5045302;28;20649;-79
2022/10/23 05:40:19;;;;;;;24.13;8.80;;;;;;;14.15;73.75;95366.06;5044406;28;20206;-78
2022/10/23 05:42:46;;;;;;;18.93;10.03;;;;;;;14.28;73.39;95370.31;5041325;28;20229;-79
2022/10/23 05:45:13;;;;;;;16.97;9.43;;;;;;;14.27;73.94;95370.53;5039701;28;20260;-79
2022/10/23 05:47:40;;;;;;;20.67;9.73;;;;;;;14.36;73.65;95375.25;5044237;28;20665;-78
2022/10/23 05:50:07;;;;;;;20.90;9.23;;;;;;;14.40;74.62;95383.47;5045383;28;20190;-78
2022/10/23 05:52:35;;;;;;;21.63;9.50;;;;;;;14.49;75.70;95376.88;5042028;28;20640;-79
2022/10/23 05:55:02;;;;;;;16.97;9.10;;;;;;;14.55;76.10;95376.78;5047035;28;20248;-79
2022/10/23 05:57:32;;;;;;;17.17;8.97;;;;;;;14.59;77.06;95383.16;5042696;28;20191;-78
2022/10/23 05:59:59;;;;;;;24.37;9.10;;;;;;;14.64;77.63;95392.94;5049345;28;20206;-79
2022/10/23 06:02:26;;;;;;;21.63;8.63;;;;;;;14.76;77.82;95396.41;5047432;28;20217;-79
2022/10/23 06:04:52;;;;;;;13.67;8.20;;;;;;;14.87;79.29;95400.03;5044425;28;20281;-79
2022/10/23 06:07:24;;;;;;;16.20;8.20;;;;;;;14.96;79.70;95406.53;5038771;28;20198;-79
2022/10/23 06:09:53;;;;;;;17.67;8.63;;;;;;;15.05;80.38;95400.75;5045130;28;20599;-79
2022/10/23 06:12:20;;;;;;;19.43;8.77;;;;;;;15.14;81.18;95412.50;5041259;28;20248;-79
2022/10/23 06:14:47;;;;;;;17.30;8.73;;;;;;;15.19;81.56;95415.22;5043336;28;20190;-78
2022/10/23 06:17:14;;;;;;;20.37;10.10;;;;;;;15.25;82.41;95418.75;5047875;28;20194;-78
2022/10/23 06:19:41;;;;;;;17.90;9.80;;;;;;;15.26;82.96;95413.28;5041223;28;20680;-78
2022/10/23 06:22:07;;;;;;;15.27;8.77;;;;;;;15.23;83.72;95426.03;5047221;28;20194;-78
2022/10/23 06:24:34;;;;;;;16.57;8.77;;;;;;;15.27;84.40;95422.72;5052451;28;20197;-79
2022/10/23 06:27:04;;;;;;;16.53;8.10;;;;;;;15.31;84.79;95412.59;5036132;28;20202;-78
2022/10/23 06:29:30;;;;;;;21.13;8.57;;;;;;;15.44;84.59;95428.06;5042326;28;20235;-78
2022/10/23 06:31:57;;;;;;;18.63;9.10;;;;;;;15.46;84.89;95427.88;5038095;28;20209;-79
2022/10/23 06:34:24;;;;;;;22.60;8.90;;;;;;;15.52;85.31;95429.59;5049756;28;20249;-79
2022/10/23 06:36:51;;;;;;;17.00;8.27;;;;;;;15.58;86.07;95424.25;5036668;28;20203;-78
2022/10/23 06:39:19;;;;;;;14.17;7.30;;;;;;;15.56;86.87;95423.66;5037597;28;20217;-78
2022/10/23 06:41:46;;;;;;;13.27;7.97;;;;;;;15.62;87.97;95421.94;5045369;28;20198;-78
2022/10/23 06:44:14;;;;;;;16.40;8.10;;;;;;;15.63;87.72;95434.84;5039958;28;20238;-78
2022/10/23 06:46:41;;;;;;;11.37;7.50;;;;;;;15.66;88.19;95438.81;5052267;28;20618;-78
2022/10/23 06:49:08;;;;;;;10.67;7.07;;;;;;;15.74;88.35;95436.63;5042263;28;20186;-77
2022/10/23 06:51:35;;;;;;;12.67;8.03;;;;;;;15.71;88.70;95431.06;5025388;28;20225;-79
2022/10/23 06:54:02;;;;;;;14.27;7.83;;;;;;;15.69;89.04;95433.91;5038949;28;20190;-79
2022/10/23 06:56:29;;;;;;;13.13;7.83;;;;;;;15.71;89.47;95442.34;5039307;28;20229;-80
2022/10/23 06:58:56;;;;;;;9.43;7.23;;;;;;;15.80;88.36;95438.34;5039403;28;20218;-78
2022/10/23 07:01:24;;;;;;;10.57;6.93;;;;;;;15.79;88.49;95441.19;5038058;28;20190;-78
2022/10/23 07:03:51;;;;;;;13.67;7.70;;;;;;;15.89;88.05;95441.41;5037850;28;20260;-79
2022/10/23 07:06:18;;;;;;;15.03;7.90;;;;;;;15.88;87.99;95430.13;5045537;28;20193;-78
2022/10/23 07:08:48;;;;;;;11.97;7.53;;;;;;;15.96;87.83;95449.16;5040828;28;20649;-78
2022/10/23 07:11:15;;;;;;;13.77;7.30;;;;;;;15.98;87.86;95449.72;5043597;28;20205;-79
2022/10/23 07:13:43;;;;;;;15.53;8.20;;;;;;;15.98;88.13;95460.19;5046611;28;20202;-79
2022/10/23 07:16:13;;;;;;;20.30;8.23;;;;;;;15.95;88.19;95447.53;5044457;28;20213;-79
2022/10/23 07:18:41;;;;;;;19.40;9.00;;;;;;;15.92;88.36;95446.19;5044928;28;20190;-79
2022/10/23 07:21:08;;;;;;;12.80;7.77;;;;;;;16.02;88.36;95450.81;5040796;28;20553;-77
2022/10/23 07:23:35;;;;;;;11.53;7.47;;;;;;;16.07;87.79;95435.22;5040191;28;20198;-80
2022/10/23 07:26:07;;;;;;;12.00;7.70;;;;;;;16.06;87.96;95444.91;5040016;28;20277;-79
2022/10/23 07:28:34;;;;;;;14.07;8.40;;;;;;;16.00;87.65;95447.63;5040741;28;20207;-78
2022/10/23 07:31:01;;;;;;;12.70;7.70;;;;;;;16.05;87.43;95448.53;5042456;28;20530;-80
2022/10/23 07:33:28;;;;;;;10.37;6.97;;;;;;;16.06;86.93;95450.13;5045898;28;20186;-77
2022/10/23 07:35:56;;;;;;;12.77;7.23;;;;;;;15.99;86.86;95438.97;5039774;28;20190;-77
2022/10/23 07:38:23;;;;;;;20.73;8.30;;;;;;;16.09;87.39;95446.25;5041834;28;20190;-79
2022/10/23 07:40:50;;;;;;;17.93;7.83;;;;;;;16.32;85.01;95449.59;5038143;28;20207;-79
2022/10/23 07:43:19;;;;;;;12.97;6.93;;;;;;;16.52;82.72;95448.38;5042139;28;20230;-78
2022/10/23 07:45:48;;;;;;;17.53;8.03;;;;;;;16.58;82.01;95450.91;5040189;28;20183;-79
2022/10/23 07:48:15;;;;;;;15.77;7.43;;;;;;;16.59;81.03;95449.09;5037671;28;20300;-77
2022/10/23 07:50:42;;;;;;;15.80;7.03;;;;;;;16.73;79.34;95450.38;5045278;28;20190;-78
2022/10/23 07:53:16;;;;;;;18.50;7.53;;;;;;;16.77;79.57;95430.47;5045576;28;20550;-78
2022/10/23 07:55:43;;;;;;;14.80;7.27;;;;;;;16.87;78.87;95439.34;5042658;28;20190;-78
2022/10/23 07:58:10;;;;;;;12.03;6.23;;;;;;;16.93;78.37;95451.53;5042616;28;20186;-77
2022/10/23 08:00:40;;;;;;;9.57;6.00;;;;;;;17.03;78.57;95440.38;5045103;28;20967;-77
2022/10/23 08:03:07;;;;;;;8.20;5.60;;;;;;;17.11;78.43;95449.72;5041861;28;20191;-78
2022/10/23 08:05:34;;;;;;;11.57;6.20;;;;;;;17.23;78.87;95451.19;5039185;28;20202;-78
2022/10/23 08:08:01;;;;;;;12.63;6.20;;;;;;;17.28;78.90;95437.38;5039283;28;20195;-79
2022/10/23 08:10:29;;;;;;;14.47;6.60;;;;;;;17.13;79.78;95423.97;5038686;28;20206;-79
2022/10/23 08:12:56;;;;;;;16.43;7.60;;;;;;;17.16;80.60;95449.78;5042400;28;20598;-79
2022/10/23 08:15:23;;;;;;;11.80;5.67;;;;;;;17.25;80.64;95450.97;5045473;28;20186;-78
2022/10/23 08:17:50;;;;;;;29.03;6.60;;;;;;;17.14;81.44;95457.13;5042866;28;20195;-78
2022/10/23 08:20:17;;;;;;;16.23;5.97;;;;;;;17.11;80.92;95445.25;5042448;28;20848;-78
2022/10/23 08:22:44;;;;;;;12.20;6.07;;;;;;;17.13;81.67;95452.88;5044472;28;20198;-78
2022/10/23 08:25:11;;;;;;;13.00;5.93;;;;;;;17.24;81.46;95436.25;5045066;28;20606;-78
2022/10/23 08:27:39;;;;;;;11.07;6.13;;;;;;;17.25;81.86;95435.22;5048320;28;20288;-78
2022/10/23 08:30:07;;;;;;;9.67;6.37;;;;;;;17.36;81.56;95445.63;5046526;28;20191;-79
2022/10/23 08:32:34;;;;;;;19.40;5.90;;;;;;;17.45;81.01;95453.91;5043706;28;20195;-77
2022/10/23 08:35:00;;;;;;;8.53;5.27;;;;;;;17.69;79.38;95459.81;5046153;28;20190;-78
2022/10/23 08:37:27;;;;;;;10.60;5.33;;;;;;;17.72;79.53;95446.19;5038486;28;20206;-78
2022/10/23 08:39:54;;;;;;;13.37;5.43;;;;;;;17.81;78.92;95439.44;5044128;28;20222;-78
2022/10/23 08:42:25;;;;;;;8.13;5.40;;;;;;;17.97;78.10;95446.50;5043973;28;20187;-78
2022/10/23 08:45:02;;;;;;;13.93;5.60;;;;;;;18.11;77.63;95450.38;5043550;28;20205;-78
2022/10/23 08:47:36;;;;;;;10.53;5.10;;;;;;;18.27;76.45;95444.22;5039924;28;20198;-79
2022/10/23 08:50:10;;;;;;;9.50;5.20;;;;;;;18.46;76.10;95439.44;5048954;28;20193;-78
2022/10/23 08:52:44;;;;;;;7.32;4.85;;;;;;;18.83;74.56;95455.38;5040473;28;20194;-78
2022/10/23 08:55:17;;;;;;;13.25;5.05;;;;;;;19.07;73.24;95446.13;5045354;28;20710;-78
2022/10/23 08:57:51;;;;;;;12.05;5.00;;;;;;;19.14;72.40;95444.84;5042340;28;20198;-79
2022/10/23 09:00:20;;;;;;;10.15;4.72;;;;;;;19.14;72.15;95441.44;5045346;28;20218;-78
2022/10/23 09:02:49;;;;;;;9.07;5.30;;;;;;;19.37;71.83;95450.81;5047215;28;20221;-78
2022/10/23 09:05:19;;;;;;;6.38;4.70;;;;;;;19.46;70.16;95439.59;5043565;28;20194;-77
2022/10/23 09:08:01;;;;;;;10.63;4.80;;;;;;;19.64;69.37;95451.59;5042932;28;20191;-78
2022/10/23 09:11:01;;;;;;;8.93;5.00;;;;;;;19.78;69.61;95464.06;5047994;28;20194;-78
2022/10/23 09:14:05;;;;;;;9.73;5.18;;;;;;;20.27;68.74;95455.88;5044207;28;20201;-78
2022/10/23 09:16:50;;;;;;;7.85;4.60;;;;;;;20.68;65.58;95457.63;5044845;28;20206;-78
2022/10/23 09:19:19;;;;;;;5.65;4.25;;;;;;;21.06;64.12;95463.50;5044751;28;20236;-79
2022/10/23 09:21:49;;;;;;;7.30;4.50;;;;;;;21.21;63.03;95451.09;5039429;28;20249;-79
2022/10/23 09:24:17;;;;;;;8.18;4.25;;;;;;;21.49;62.20;95455.06;5041594;28;20222;-78
2022/10/23 09:26:47;;;;;;;10.98;4.57;;;;;;;21.91;61.96;95449.44;5044342;28;20197;-79
2022/10/23 09:29:22;;;;;;;12.88;5.60;;;;;;;22.51;60.39;95443.16;5046249;28;20194;-78
2022/10/23 09:31:52;;;;;;;7.75;5.75;;;;;;;22.62;59.04;95455.28;5044921;28;20179;-77
2022/10/23 09:34:22;;;;;;;9.60;5.50;;;;;;;22.89;57.41;95441.59;5039105;28;20199;-78
2022/10/23 09:36:51;;;;;;;8.60;4.30;;;;;;;23.24;55.92;95444.00;5044143;28;20675;-78
2022/10/23 09:39:24;;;;;;;8.02;5.00;;;;;;;23.03;56.05;95456.63;5044795;28;20539;-79
2022/10/23 09:41:51;;;;;;;12.73;6.22;;;;;;;23.11;55.69;95447.31;5041641;28;20194;-79
2022/10/23 09:44:22;;;;;;;9.32;5.75;;;;;;;23.28;54.71;95441.59;5041923;28;20230;-78
2022/10/23 09:46:53;;;;;;;5.55;3.80;;;;;;;23.70;52.28;95444.44;5043912;28;20195;-78
2022/10/23 09:49:23;;;;;;;6.30;4.00;;;;;;;23.53;52.58;95441.41;5046897;28;20721;-76
2022/10/23 09:51:56;;;;;;;5.15;3.53;;;;;;;23.38;53.48;95446.81;5042040;28;20222;-77
2022/10/23 09:54:23;;;;;;;8.35;3.80;;;;;;;23.55;51.58;95431.31;5044348;28;20190;-77
2022/10/23 09:56:53;;;;;;;9.43;4.00;;;;;;;24.07;50.60;95436.59;5041515;28;20191;-78
2022/10/23 09:59:25;;;;;;;8.52;3.63;;;;;;;24.11;49.90;95444.84;5041389;28;20194;-78
2022/10/23 10:01:55;;;;;;;8.82;3.42;;;;;;;24.36;49.34;95436.56;5040740;28;20236;-79
2022/10/23 10:04:32;;;;;;;6.10;3.50;;;;;;;24.45;49.12;95437.50;5043932;28;20195;-78
2022/10/23 10:07:02;;;;;;;9.55;4.15;;;;;;;24.62;47.14;95427.19;5041207;28;20633;-77
2022/10/23 10:09:29;;;;;;;7.88;3.22;;;;;;;24.74;46.96;95430.19;5043476;28;20621;-77
2022/10/23 10:11:59;;;;;;;9.63;4.25;;;;;;;24.65;47.60;95439.91;5040514;28;20621;-77
2022/10/23 10:14:53;;;;;;;6.47;3.63;;;;;;;24.72;47.92;95428.91;5041377;28;20194;-77
2022/10/23 10:17:32;;;;;;;5.50;3.20;;;;;;;25.40;45.55;95429.22;5043441;28;20185;-77
2022/10/23 10:20:22;;;;;;;5.07;3.15;;;;;;;25.90;43.77;95428.38;5043515;28;20226;-76
2022/10/23 10:22:55;;;;;;;4.28;3.00;;;;;;;26.44;41.60;95438.25;5032931;28;20195;-78
2022/10/23 10:25:31;;;;;;;6.43;2.90;;;;;;;26.24;40.31;95429.88;5041269;28;20190;-77
2022/10/23 10:28:15;;;;;;;4.75;2.90;;;;;;;25.55;41.41;95428.19;5043538;28;20185;-77
2022/10/23 10:30:56;;;;;;;4.20;2.80;;;;;;;25.47;41.59;95426.19;5040028;28;20194;-78
2022/10/23 10:33:32;;;;;;;3.92;2.80;;;;;;;25.63;42.70;95427.53;5043243;28;20655;-77
2022/10/23 10:36:04;;;;;;;6.15;2.80;;;;;;;26.20;40.37;95410.25;5043924;28;20679;-77
2022/10/23 10:38:46;;;;;;;4.50;2.88;;;;;;;26.30;39.76;95420.69;5042100;28;20264;-78
2022/10/23 10:41:41;;;;;;;4.25;3.13;;;;;;;26.84;38.69;95428.63;5040807;28;20563;-78
2022/10/23 10:44:42;;;;;;;7.00;3.00;;;;;;;27.12;37.27;95421.31;5039651;28;20222;-78
2022/10/23 10:47:15;;;;;;;4.43;3.00;;;;;;;26.84;38.70;95430.53;5042876;28;20201;-77
2022/10/23 10:49:55;;;;;;;8.52;2.85;;;;;;;27.27;37.85;95428.97;5043320;28;20631;-77
2022/10/23 10:52:29;;;;;;;8.57;2.70;;;;;;;27.71;37.02;95409.44;5043651;28;20186;-77
2022/10/23 10:55:02;;;;;;;6.00;2.65;;;;;;;27.95;37.08;95412.56;5041020;28;20197;-77
2022/10/23 10:57:34;;;;;;;4.72;3.03;;;;;;;28.03;36.04;95419.84;5043979;28;20191;-78
2022/10/23 11:00:04;;;;;;;4.90;2.90;;;;;;;28.09;35.04;95413.25;5040935;28;20274;-77
2022/10/23 11:02:40;;;;;;;5.40;3.50;;;;;;;28.17;35.42;95413.63;5043448;28;20203;-78
2022/10/23 11:05:18;;;;;;;5.05;2.78;;;;;;;27.90;35.65;95410.03;5042656;28;20589;-77
2022/10/23 11:07:54;;;;;;;5.57;2.88;;;;;;;27.76;35.80;95406.66;5043566;28;20179;-77
2022/10/23 11:10:21;;;;;;;4.05;2.60;;;;;;;28.08;36.19;95413.59;5040598;28;20189;-78
2022/10/23 11:12:49;;;;;;;5.53;2.80;;;;;;;27.92;35.45;95418.50;5041867;28;20202;-78
2022/10/23 11:15:19;;;;;;;4.65;2.78;;;;;;;27.83;35.75;95403.53;5040387;28;20201;-78
2022/10/23 11:17:50;;;;;;;6.72;3.00;;;;;;;27.84;35.56;95405.91;5043905;28;20213;-77
2022/10/23 11:20:37;;;;;;;3.92;2.80;;;;;;;27.88;35.63;95403.41;5040366;28;20222;-77
2022/10/23 11:23:20;;;;;;;5.45;3.00;;;;;;;28.06;36.75;95402.38;5040725;28;20202;-77
2022/10/23 11:25:59;;;;;;;8.82;2.88;;;;;;;28.34;35.59;95393.03;5041729;28;20648;-78
2022/10/23 11:28:48;;;;;;;3.80;2.50;;;;;;;28.60;35.09;95396.53;5041794;28;20190;-77
2022/10/23 11:31:24;;;;;;;3.00;2.70;;;;;;;28.63;34.05;95387.09;5042159;28;20679;-77
2022/10/23 11:34:06;;;;;;;6.18;2.90;;;;;;;28.07;35.88;95387.94;5042627;28;20174;-77
2022/10/23 11:36:44;;;;;;;8.68;3.30;;;;;;;27.78;36.56;95385.75;5044716;28;20194;-77